Time;durP1;ratioP1;P1;durP2;ratioP2;P2;SDS_P1;SDS_P2;PMS_P1;PMS_P2;Temp;Humidity;BMP_temperature;BMP_pressure;BME280_temperature;BME280_humidity;BME280_pressure;Samples;Min_cycle;Max_cycle;Signal;HPM_P1;HPM_P2
2023/10/14 00:00:26;;;;;;;;;37.00;33.25;;;;;19.42;40.27;99423.06;5132691;27;8858;-75
2023/10/14 00:03:27;;;;;;;;;37.00;33.50;;;;;19.47;39.94;99418.31;5123860;27;8941;-73
2023/10/14 00:06:00;;;;;;;;;33.50;31.50;;;;;19.42;39.77;99417.72;5111902;28;8861;-74
2023/10/14 00:08:31;;;;;;;;;38.75;35.00;;;;;19.44;39.74;99414.97;5112010;28;8853;-73
2023/10/14 00:11:02;;;;;;;;;39.00;33.00;;;;;19.45;39.87;99412.22;5112247;28;8841;-74
2023/10/14 00:13:32;;;;;;;;;40.50;35.00;;;;;19.38;40.37;99413.53;5111966;28;8853;-74
2023/10/14 00:16:08;;;;;;;;;30.25;28.75;;;;;19.48;39.55;99412.03;5111838;28;8966;-74
2023/10/14 00:18:47;;;;;;;;;35.00;32.50;;;;;19.54;39.27;99407.31;5128072;27;8845;-75
2023/10/14 00:21:17;;;;;;;;;36.25;33.00;;;;;19.58;39.34;99411.53;5120903;27;8843;-74
2023/10/14 00:23:47;;;;;;;;;36.50;32.50;;;;;19.59;39.21;99407.88;5132577;27;8879;-79
2023/10/14 00:26:16;;;;;;;;;33.75;32.00;;;;;19.59;39.05;99399.91;5132704;27;8923;-72
2023/10/14 00:28:54;;;;;;;;;36.00;33.50;;;;;19.59;39.10;99402.56;5132212;27;8861;-76
2023/10/14 00:31:24;;;;;;;;;35.75;32.50;;;;;19.61;38.95;99401.53;5130890;27;9536;-76
2023/10/14 00:33:54;;;;;;;;;36.00;32.25;;;;;19.63;38.92;99404.09;5132403;27;8873;-73
2023/10/14 00:36:30;;;;;;;;;36.50;32.75;;;;;19.61;38.95;99393.53;5121673;27;8864;-73
2023/10/14 00:39:00;;;;;;;;;39.25;34.50;;;;;19.61;38.93;99395.31;5110073;28;8949;-74
2023/10/14 00:41:28;;;;;;;;;38.50;35.00;;;;;19.60;38.94;99393.63;5127478;27;8849;-73
2023/10/14 00:43:57;;;;;;;;;39.00;34.00;;;;;19.55;39.03;99385.88;5127307;27;8825;-74
2023/10/14 00:46:31;;;;;;;;;37.75;34.75;;;;;19.49;38.93;99380.91;5076113;28;8878;-76
2023/10/14 00:49:04;;;;;;;;;44.25;37.75;;;;;19.42;39.24;99371.56;5111471;28;8861;-75
2023/10/14 00:51:34;;;;;;;;;41.75;37.25;;;;;19.25;39.45;99369.91;5075228;28;8861;-73
2023/10/14 00:54:05;;;;;;;;;42.25;37.00;;;;;19.29;39.54;99371.44;5110973;27;8852;-74
2023/10/14 00:56:40;;;;;;;;;42.50;36.25;;;;;19.25;39.60;99362.78;5127069;27;8887;-75
2023/10/14 00:59:10;;;;;;;;;40.25;34.00;;;;;19.27;39.45;99371.56;5109969;28;8845;-74
2023/10/14 01:01:55;;;;;;;;;41.50;36.00;;;;;19.20;39.42;99364.03;5092101;28;10110;-75
2023/10/14 01:04:32;;;;;;;;;41.25;36.25;;;;;19.24;39.21;99349.56;5109789;28;8841;-74
2023/10/14 01:07:04;;;;;;;;;39.25;34.00;;;;;19.23;39.03;99354.00;5111301;28;8964;-76
2023/10/14 01:09:51;;;;;;;;;36.25;31.50;;;;;19.22;39.00;99354.97;5109617;28;8857;-72
2023/10/14 01:12:26;;;;;;;;;40.25;36.00;;;;;19.22;39.03;99351.47;5080180;28;8891;-75
2023/10/14 01:14:59;;;;;;;;;39.50;33.75;;;;;19.24;39.14;99349.56;5111270;28;8845;-74
2023/10/14 01:17:29;;;;;;;;;39.50;36.25;;;;;19.24;39.06;99344.22;5111167;28;8952;-74
2023/10/14 01:20:24;;;;;;;;;41.25;35.75;;;;;19.22;39.00;99348.78;5113785;28;8928;-74
2023/10/14 01:22:57;;;;;;;;;39.25;33.50;;;;;19.24;38.81;99341.56;5109053;28;8934;-76
2023/10/14 01:25:30;;;;;;;;;34.50;32.25;;;;;19.19;38.75;99341.81;5110751;28;8936;-74
2023/10/14 01:27:59;;;;;;;;;36.75;32.50;;;;;19.12;38.62;99336.03;5109250;28;8833;-73
2023/10/14 01:30:32;;;;;;;;;31.50;30.50;;;;;19.08;38.74;99337.16;5126391;27;8896;-76
2023/10/14 01:33:09;;;;;;;;;36.25;32.25;;;;;19.07;38.95;99329.25;5075066;28;8884;-72
2023/10/14 01:35:42;;;;;;;;;36.50;32.50;;;;;19.03;38.89;99331.25;5087306;28;9660;-75
2023/10/14 01:38:13;;;;;;;;;33.25;31.00;;;;;19.04;39.05;99329.41;5087586;28;8847;-74
2023/10/14 01:40:48;;;;;;;;;35.00;32.75;;;;;19.05;38.90;99325.81;5070872;28;8859;-75
2023/10/14 01:43:23;;;;;;;;;34.00;33.00;;;;;19.09;38.84;99320.22;5087414;28;8878;-74
2023/10/14 01:46:00;;;;;;;;;37.00;33.00;;;;;18.97;39.18;99322.75;5070554;28;8830;-75
2023/10/14 01:48:31;;;;;;;;;36.25;33.00;;;;;19.01;39.01;99319.81;5024658;28;8843;-71
2023/10/14 01:51:03;;;;;;;;;35.50;32.25;;;;;18.99;38.99;99316.38;5087678;28;8843;-75
2023/10/14 01:53:35;;;;;;;;;36.00;34.00;;;;;19.06;38.94;99314.19;5087421;28;9661;-74
2023/10/14 01:56:06;;;;;;;;;37.00;33.00;;;;;19.00;39.13;99307.44;5087270;28;8828;-72
2023/10/14 01:58:36;;;;;;;;;37.00;34.50;;;;;18.89;39.19;99308.09;5053679;28;8847;-76
2023/10/14 02:01:14;;;;;;;;;36.50;32.75;;;;;18.78;39.59;99304.28;5073818;28;8833;-77
2023/10/14 02:03:46;;;;;;;;;42.00;37.00;;;;;18.72;39.71;99303.72;5070257;28;8896;-75
2023/10/14 02:06:18;;;;;;;;;38.25;34.75;;;;;18.66;39.74;99297.91;5029632;28;8855;-71
2023/10/14 02:08:52;;;;;;;;;36.50;34.25;;;;;18.78;39.50;99296.31;5109922;28;8871;-73
2023/10/14 02:11:21;;;;;;;;;26.25;25.50;;;;;18.77;39.62;99297.28;5108364;28;8825;-73
2023/10/14 02:13:52;;;;;;;;;38.00;34.50;;;;;18.78;39.28;99304.28;5108752;28;8838;-74
2023/10/14 02:16:24;;;;;;;;;31.75;30.75;;;;;18.78;39.17;99302.50;5108551;28;8889;-72
2023/10/14 02:19:01;;;;;;;;;37.50;34.00;;;;;18.77;39.20;99300.78;5057160;28;8863;-74
2023/10/14 02:21:35;;;;;;;;;28.75;28.75;;;;;18.80;39.12;99305.97;5076727;28;8875;-73
2023/10/14 02:24:10;;;;;;;;;30.50;29.25;;;;;18.85;39.03;99303.03;5108272;28;8868;-71
2023/10/14 02:26:39;;;;;;;;;36.50;33.50;;;;;18.88;38.94;99306.38;5108238;27;8887;-75
2023/10/14 02:29:10;;;;;;;;;35.75;33.75;;;;;18.82;38.80;99305.84;5108285;28;8837;-74
2023/10/14 02:31:41;;;;;;;;;38.50;34.75;;;;;18.61;39.62;99299.97;5091484;27;8861;-73
2023/10/14 02:34:10;;;;;;;;;35.00;33.00;;;;;18.59;39.90;99305.41;5108255;28;8861;-74
2023/10/14 02:36:48;;;;;;;;;35.50;32.00;;;;;18.52;39.64;99304.88;5108338;28;8939;-74
2023/10/14 02:39:26;;;;;;;;;35.50;33.25;;;;;18.41;40.18;99296.66;5109456;28;8867;-74
2023/10/14 02:42:07;;;;;;;;;41.00;34.75;;;;;18.49;40.01;99297.06;5092271;27;8964;-76
2023/10/14 02:44:45;;;;;;;;;36.75;34.00;;;;;18.49;39.89;99297.06;5107871;28;8845;-74
2023/10/14 02:47:14;;;;;;;;;37.00;34.25;;;;;18.44;40.38;99295.63;5107835;28;8864;-73
2023/10/14 02:49:43;;;;;;;;;25.75;23.75;;;;;18.45;40.22;99295.53;5056600;28;8856;-74
2023/10/14 02:52:18;;;;;;;;;36.75;33.75;;;;;18.43;40.23;99300.09;5108982;28;8833;-75
2023/10/14 02:54:59;;;;;;;;;33.25;31.50;;;;;18.44;40.15;99293.84;5141875;27;8821;-72
2023/10/14 02:57:28;;;;;;;;;34.50;33.00;;;;;18.37;40.20;99288.94;5107595;28;10140;-76
2023/10/14 02:59:57;;;;;;;;;31.50;30.50;;;;;18.34;39.82;99285.50;5107791;28;8845;-73
2023/10/14 03:02:27;;;;;;;;;31.20;27.80;;;;;18.42;39.51;99286.84;5108682;28;9683;-73
2023/10/14 03:05:12;;;;;;;;;36.00;32.25;;;;;18.46;39.39;99283.94;5107813;28;8875;-71
2023/10/14 03:07:50;;;;;;;;;31.75;31.00;;;;;18.50;39.31;99284.63;5110163;28;8918;-76
2023/10/14 03:10:28;;;;;;;;;35.25;31.75;;;;;18.50;39.43;99280.16;5124832;27;8856;-72
2023/10/14 03:12:58;;;;;;;;;38.75;35.00;;;;;18.58;39.30;99277.03;5109194;28;9625;-77
2023/10/14 03:15:37;;;;;;;;;37.75;34.50;;;;;18.60;39.28;99277.81;5108502;28;8836;-74
2023/10/14 03:18:08;;;;;;;;;34.75;33.75;;;;;18.62;39.32;99275.06;5110353;28;8853;-75
2023/10/14 03:20:44;;;;;;;;;39.00;34.75;;;;;18.43;39.76;99276.13;5128802;27;8902;-73
2023/10/14 03:23:19;;;;;;;;;29.80;27.80;;;;;18.45;39.83;99274.25;5113438;28;8896;-72
2023/10/14 03:25:51;;;;;;;;;37.00;34.00;;;;;18.43;40.23;99280.59;5113033;27;8848;-75
2023/10/14 03:28:24;;;;;;;;;33.00;32.00;;;;;18.23;40.32;99273.75;5112899;28;8883;-73
2023/10/14 03:30:56;;;;;;;;;33.75;32.50;;;;;18.34;40.20;99271.34;5112956;28;8901;-75
2023/10/14 03:33:29;;;;;;;;;31.50;30.50;;;;;18.44;39.75;99269.00;5111564;28;8921;-76
2023/10/14 03:36:03;;;;;;;;;34.25;31.50;;;;;18.48;39.71;99263.44;5112768;28;8853;-76
2023/10/14 03:38:39;;;;;;;;;35.50;31.00;;;;;18.55;39.38;99263.91;5112864;28;9984;-72
2023/10/14 03:41:17;;;;;;;;;32.75;29.75;;;;;18.53;39.44;99252.50;5113027;28;8881;-74
2023/10/14 03:43:54;;;;;;;;;30.00;29.00;;;;;18.56;39.18;99252.31;5112851;28;8833;-75
2023/10/14 03:46:29;;;;;;;;;34.25;32.50;;;;;18.61;39.12;99257.38;5112705;28;8856;-73
2023/10/14 03:49:05;;;;;;;;;30.25;27.75;;;;;18.40;39.25;99254.16;5112552;28;8867;-72
2023/10/14 03:51:39;;;;;;;;;34.50;32.00;;;;;18.48;39.47;99249.28;5112756;28;8903;-75
2023/10/14 03:54:09;;;;;;;;;33.50;31.75;;;;;18.35;39.66;99249.97;5112707;28;8837;-73
2023/10/14 03:56:44;;;;;;;;;34.00;33.00;;;;;18.34;39.97;99248.25;5111334;28;8857;-73
2023/10/14 03:59:21;;;;;;;;;52.50;42.50;;;;;18.26;40.60;99261.13;5112592;28;8857;-78
2023/10/14 04:01:57;;;;;;;;;43.25;38.50;;;;;17.97;41.00;99260.97;5112295;28;8853;-76
2023/10/14 04:04:29;;;;;;;;;43.75;36.25;;;;;17.84;41.47;99262.59;5128853;27;8857;-72
2023/10/14 04:07:15;;;;;;;;;42.75;37.75;;;;;17.98;41.39;99260.00;5132889;27;8847;-73
2023/10/14 04:09:51;;;;;;;;;42.00;36.75;;;;;17.96;41.37;99263.72;5132787;27;8864;-76
2023/10/14 04:12:32;;;;;;;;;49.25;39.75;;;;;18.04;41.36;99260.66;5132709;27;8888;-73
2023/10/14 04:15:15;;;;;;;;;52.50;43.00;;;;;18.10;41.45;99262.94;5132504;27;8843;-73
2023/10/14 04:17:52;;;;;;;;;49.00;42.25;;;;;17.78;42.10;99263.81;5132829;27;9639;-73
2023/10/14 04:20:22;;;;;;;;;52.25;43.25;;;;;16.72;44.74;99274.69;5132748;27;8849;-75
2023/10/14 04:22:53;;;;;;;;;52.00;43.75;;;;;15.87;47.43;99280.59;5132732;27;8881;-76
2023/10/14 04:25:38;;;;;;;;;50.75;42.25;;;;;15.82;47.53;99279.94;5132214;27;8881;-73
2023/10/14 04:28:25;;;;;;;;;50.75;43.25;;;;;15.63;48.53;99280.78;5131111;27;8958;-75
2023/10/14 04:31:00;;;;;;;;;51.00;42.75;;;;;16.01;47.20;99269.31;5132334;27;8815;-72
2023/10/14 04:33:36;;;;;;;;;50.00;42.00;;;;;16.17;46.65;99274.75;5122046;27;8863;-73
2023/10/14 04:39:15;;;;;;;;;51.50;43.00;;;;;16.47;45.98;99274.19;5071654;28;8903;-73
2023/10/14 04:41:55;;;;;;;;;50.75;42.75;;;;;16.53;45.98;99274.78;5038260;28;9580;-75
2023/10/14 04:44:37;;;;;;;;;51.00;43.00;;;;;16.60;45.88;99283.28;5088564;28;9069;-73
2023/10/14 04:47:06;;;;;;;;;49.25;42.00;;;;;16.65;45.95;99283.06;5043848;28;8849;-74
2023/10/14 04:49:37;;;;;;;;;53.25;44.75;;;;;16.68;45.71;99285.53;5088481;28;8830;-72
2023/10/14 04:52:08;;;;;;;;;57.75;46.50;;;;;16.65;45.90;99278.59;5039022;28;9662;-73
2023/10/14 04:54:51;;;;;;;;;61.50;50.25;;;;;16.64;46.33;99281.31;5089648;28;8866;-74
2023/10/14 04:57:21;;;;;;;;;64.00;51.33;;;;;16.61;46.36;99292.97;5071537;28;8877;-74
2023/10/14 04:59:54;;;;;;;;;64.33;51.67;;;;;16.60;46.40;99293.88;5071276;28;8966;-75
2023/10/14 05:02:24;;;;;;;;;61.67;50.00;;;;;16.56;46.66;99290.53;5088360;28;8942;-73
2023/10/14 05:04:53;;;;;;;;;62.33;51.00;;;;;16.50;46.69;99296.13;5084329;28;8966;-75
2023/10/14 05:07:28;;;;;;;;;64.67;52.67;;;;;16.50;46.84;99290.84;5067810;28;9003;-73
2023/10/14 05:09:56;;;;;;;;;64.00;51.33;;;;;16.49;46.71;99298.88;5067593;28;9283;-71
2023/10/14 05:12:26;;;;;;;;;62.33;51.33;;;;;16.50;46.62;99296.13;5056079;28;9183;-76
2023/10/14 05:14:56;;;;;;;;;66.33;52.67;;;;;16.43;47.20;99298.19;5110970;27;9118;-73
2023/10/14 05:17:26;;;;;;;;;69.75;58.25;;;;;16.37;47.47;99302.94;5110838;28;9358;-74
2023/10/14 05:19:58;;;;;;;;;66.33;55.00;;;;;16.31;47.53;99300.59;5110626;28;10596;-75
2023/10/14 05:22:37;;;;;;;;;67.33;54.00;;;;;16.20;48.10;99309.06;5110598;28;9271;-74
2023/10/14 05:25:15;;;;;;;;;65.67;52.33;;;;;16.24;48.04;99305.34;5110136;28;9244;-78
2023/10/14 05:27:55;;;;;;;;;67.33;54.67;;;;;16.31;48.06;99305.91;5110751;28;9251;-72
2023/10/14 05:30:33;;;;;;;;;68.67;56.33;;;;;16.39;48.01;99320.50;5110123;28;10192;-73
2023/10/14 05:33:08;;;;;;;;;68.67;56.33;;;;;16.41;47.98;99313.31;5110183;28;9409;-73
2023/10/14 05:35:39;;;;;;;;;70.50;59.50;;;;;16.37;48.14;99322.38;5110329;28;9460;-73
2023/10/14 05:38:11;;;;;;;;;69.00;55.00;;;;;16.41;48.36;99315.13;5110184;28;9769;-73
2023/10/14 05:40:40;;;;;;;;;75.00;68.00;;;;;16.45;48.52;99322.03;5108988;28;9571;-74
2023/10/14 05:43:09;;;;;;;;;72.75;64.25;;;;;16.49;48.33;99323.59;5109975;28;10266;-72
2023/10/14 05:45:39;;;;;;;;;73.00;66.25;;;;;16.57;48.41;99323.25;5108813;28;10174;-72
2023/10/14 05:48:09;;;;;;;;;73.75;64.50;;;;;16.62;48.27;99326.50;5110116;28;10276;-73
2023/10/14 05:50:38;;;;;;;;;75.00;69.50;;;;;16.63;48.44;99327.41;5110075;28;10188;-74
2023/10/14 05:53:08;;;;;;;;;73.75;66.00;;;;;16.69;48.27;99319.97;5074492;28;10679;-75
2023/10/14 05:55:39;;;;;;;;;76.75;71.50;;;;;16.67;48.31;99324.50;5109502;28;10225;-73
2023/10/14 05:58:08;;;;;;;;;75.75;68.50;;;;;16.74;48.22;99325.06;5091097;28;10511;-72
2023/10/14 06:00:41;;;;;;;;;71.75;63.00;;;;;16.80;48.17;99324.75;5109656;28;10449;-75
2023/10/14 06:03:12;;;;;;;;;74.75;65.50;;;;;16.78;48.28;99327.47;5109545;28;10103;-74
2023/10/14 06:05:42;;;;;;;;;76.25;70.50;;;;;16.84;48.21;99334.28;5073464;28;10306;-74
2023/10/14 06:08:17;;;;;;;;;76.00;67.25;;;;;16.71;48.33;99327.84;5109322;28;11106;-73
2023/10/14 06:10:46;;;;;;;;;72.75;64.00;;;;;16.78;48.51;99324.81;5125269;27;10560;-72
2023/10/14 06:13:16;;;;;;;;;76.75;68.50;;;;;16.83;48.62;99324.56;5109528;28;10433;-75
2023/10/14 06:15:46;;;;;;;;;75.75;66.75;;;;;16.97;48.51;99321.25;5109468;28;10467;-75
2023/10/14 06:18:16;;;;;;;;;76.25;69.75;;;;;17.03;47.90;99320.06;5073839;28;10420;-76
2023/10/14 06:20:46;;;;;;;;;73.00;65.50;;;;;17.14;47.85;99331.00;5107787;28;10454;-73
2023/10/14 06:23:15;;;;;;;;;76.25;67.00;;;;;17.26;47.47;99317.09;5109658;28;10248;-75
2023/10/14 06:25:45;;;;;;;;;74.00;66.00;;;;;17.37;47.44;99311.22;5090382;28;10365;-75
2023/10/14 06:28:14;;;;;;;;;71.00;62.25;;;;;17.35;47.05;99311.31;5109447;28;10020;-75
2023/10/14 06:31:00;;;;;;;;;69.00;55.40;;;;;17.13;47.77;99308.00;5139183;27;1347244;-74
2023/10/14 06:33:29;;;;;;;;;65.25;53.00;;;;;17.50;46.01;99312.28;5168287;27;8823;-76
2023/10/14 06:36:03;;;;;;;;;65.00;53.00;;;;;17.71;45.81;99302.28;5149145;27;8843;-73
2023/10/14 06:38:33;;;;;;;;;59.75;49.25;;;;;17.91;45.53;99309.19;5168705;27;8820;-74
2023/10/14 06:41:02;;;;;;;;;66.33;53.33;;;;;18.06;44.94;99307.50;5151040;27;8866;-76
2023/10/14 06:43:33;;;;;;;;;61.75;50.75;;;;;18.06;44.90;99296.00;5168060;27;8996;-75
2023/10/14 06:46:04;;;;;;;;;62.75;49.75;;;;;18.16;44.93;99303.38;5168222;27;8847;-74
2023/10/14 06:48:38;;;;;;;;;58.00;48.50;;;;;18.07;45.04;99309.22;5168194;27;8855;-74
2023/10/14 06:51:09;;;;;;;;;62.75;50.75;;;;;18.26;44.96;99309.03;5133189;27;8827;-73
2023/10/14 06:53:39;;;;;;;;;56.25;46.75;;;;;18.24;44.94;99310.06;5167867;27;8827;-74
2023/10/14 06:56:11;;;;;;;;;58.00;46.75;;;;;18.39;44.70;99313.66;5167595;27;9611;-75
2023/10/14 06:58:43;;;;;;;;;61.75;50.25;;;;;18.56;44.70;99310.88;5167644;27;8855;-75
2023/10/14 07:01:14;;;;;;;;;62.75;50.25;;;;;18.72;44.51;99306.41;5162134;27;8856;-76
2023/10/14 07:03:49;;;;;;;;;61.75;50.00;;;;;18.90;44.15;99308.94;5146926;27;9682;-74
2023/10/14 07:06:19;;;;;;;;;60.75;49.75;;;;;19.00;44.04;99318.09;5146492;27;8853;-76
2023/10/14 07:08:48;;;;;;;;;58.50;46.50;;;;;19.15;43.93;99307.47;5146336;27;9594;-76
2023/10/14 07:11:17;;;;;;;;;62.00;50.25;;;;;19.26;43.77;99319.19;5127995;27;8893;-77
2023/10/14 07:13:47;;;;;;;;;52.75;44.50;;;;;19.41;43.86;99320.06;5146269;27;8860;-78
2023/10/14 07:16:17;;;;;;;;;55.00;45.75;;;;;19.49;43.93;99322.25;5146013;27;8850;-78
2023/10/14 07:18:46;;;;;;;;;57.25;47.25;;;;;19.65;43.78;99323.06;5146543;27;8826;-80
2023/10/14 07:21:15;;;;;;;;;57.25;47.75;;;;;19.17;45.05;99325.06;5145903;27;8845;-75
2023/10/14 07:23:45;;;;;;;;;57.75;48.50;;;;;19.00;45.75;99319.91;5163620;27;8843;-75
2023/10/14 07:26:15;;;;;;;;;59.00;48.25;;;;;19.27;45.35;99318.25;5166902;27;9600;-77
2023/10/14 07:28:45;;;;;;;;;60.25;48.00;;;;;19.26;45.58;99323.66;5166863;27;8839;-75
2023/10/14 07:31:14;;;;;;;;;57.25;47.50;;;;;19.41;45.23;99321.88;5166596;27;8843;-77
2023/10/14 07:33:45;;;;;;;;;55.00;45.50;;;;;19.35;45.30;99320.44;5166809;27;8843;-73
2023/10/14 07:36:14;;;;;;;;;56.25;46.75;;;;;19.53;44.76;99321.13;5166838;27;8887;-76
2023/10/14 07:38:44;;;;;;;;;57.00;47.25;;;;;19.46;45.46;99327.75;5113314;27;8827;-78
2023/10/14 07:41:14;;;;;;;;;60.25;47.25;;;;;19.58;45.38;99327.06;5105968;27;8835;-76
2023/10/14 07:43:43;;;;;;;;;57.00;46.25;;;;;19.78;45.11;99324.94;5152754;27;9665;-77
2023/10/14 07:46:12;;;;;;;;;53.50;44.25;;;;;19.77;44.70;99333.91;5134034;27;8847;-76
2023/10/14 07:48:41;;;;;;;;;52.75;42.50;;;;;19.69;44.94;99324.56;5152550;27;8823;-78
2023/10/14 07:51:11;;;;;;;;;53.00;45.00;;;;;19.98;44.52;99321.88;5134195;27;8881;-76
2023/10/14 07:53:58;;;;;;;;;53.00;44.75;;;;;19.36;45.86;99330.13;5133774;27;8840;-76
2023/10/14 07:56:27;;;;;;;;;48.75;40.75;;;;;19.06;46.53;99330.19;5078553;27;8861;-75
2023/10/14 07:58:56;;;;;;;;;48.00;40.50;;;;;18.59;47.47;99332.03;5132239;27;9627;-77
2023/10/14 08:01:25;;;;;;;;;51.50;42.25;;;;;18.43;48.59;99334.69;5113317;27;8976;-73
2023/10/14 08:03:56;;;;;;;;;48.25;39.50;;;;;18.97;47.51;99330.72;5131869;27;8925;-78
2023/10/14 08:06:28;;;;;;;;;49.00;40.50;;;;;19.10;46.64;99332.59;5132809;27;8971;-74
2023/10/14 08:08:57;;;;;;;;;50.00;42.00;;;;;19.26;46.46;99327.19;5096407;27;8841;-74
2023/10/14 08:11:25;;;;;;;;;51.50;43.00;;;;;19.38;46.04;99328.22;5095539;27;8869;-74
2023/10/14 08:13:54;;;;;;;;;46.75;40.00;;;;;19.69;45.33;99324.56;5096216;27;9533;-76
2023/10/14 08:16:23;;;;;;;;;45.50;38.50;;;;;19.75;44.69;99322.50;5139386;27;8855;-74
2023/10/14 08:18:53;;;;;;;;;50.50;41.25;;;;;19.78;45.01;99320.47;5133432;27;8890;-74
2023/10/14 08:21:23;;;;;;;;;48.25;39.75;;;;;19.43;45.42;99322.63;5133348;27;8839;-75
2023/10/14 08:23:54;;;;;;;;;47.75;39.75;;;;;19.86;44.82;99318.19;5133494;27;9603;-74
2023/10/14 08:26:26;;;;;;;;;45.25;39.25;;;;;20.04;44.50;99326.81;5153303;27;8855;-76
2023/10/14 08:28:59;;;;;;;;;42.75;36.25;;;;;20.25;43.88;99323.75;5151925;27;8859;-75
2023/10/14 08:31:32;;;;;;;;;34.00;32.00;;;;;20.08;44.16;99317.69;5133257;27;8851;-76
2023/10/14 08:34:02;;;;;;;;;44.25;37.50;;;;;20.07;44.34;99315.94;5107646;28;8924;-76
2023/10/14 08:36:31;;;;;;;;;47.50;40.00;;;;;19.99;44.69;99314.72;5090721;28;8867;-75
2023/10/14 08:39:01;;;;;;;;;46.25;37.25;;;;;20.23;43.82;99312.31;5107573;28;8970;-75
2023/10/14 08:41:34;;;;;;;;;47.75;40.00;;;;;20.23;43.87;99310.50;5107651;28;8851;-77
2023/10/14 08:44:08;;;;;;;;;46.50;38.50;;;;;20.33;43.76;99312.56;5107761;28;8874;-74
2023/10/14 08:46:39;;;;;;;;;55.25;46.00;;;;;20.00;44.69;99314.63;5090459;28;8941;-75
2023/10/14 08:49:12;;;;;;;;;43.25;36.00;;;;;20.31;43.85;99309.16;5107811;28;8839;-75
2023/10/14 08:51:44;;;;;;;;;40.50;35.50;;;;;19.90;44.26;99306.34;5107368;28;8840;-78
2023/10/14 08:54:25;;;;;;;;;38.25;33.25;;;;;20.36;43.87;99304.38;5106829;28;8882;-76
2023/10/14 08:56:54;;;;;;;;;41.50;35.50;;;;;20.69;43.78;99301.28;5090286;28;8890;-78
2023/10/14 08:59:23;;;;;;;;;39.00;35.50;;;;;21.00;43.14;99296.56;5107148;28;8839;-76
2023/10/14 09:01:56;;;;;;;;;38.50;33.25;;;;;20.89;42.37;99307.94;5106763;28;8863;-77
2023/10/14 09:04:29;;;;;;;;;41.00;35.25;;;;;20.44;42.59;99296.72;5106495;28;8840;-73
2023/10/14 09:07:02;;;;;;;;;43.00;36.75;;;;;20.73;42.43;99294.78;5107033;28;8944;-73
2023/10/14 09:09:33;;;;;;;;;32.00;30.00;;;;;20.92;41.46;99297.09;5106893;28;8860;-75
2023/10/14 09:12:13;;;;;;;;;36.75;32.25;;;;;21.25;40.97;99291.22;5134150;27;8844;-73
2023/10/14 09:14:43;;;;;;;;;34.75;32.25;;;;;21.25;40.82;99291.22;5150405;27;8851;-75
2023/10/14 09:17:12;;;;;;;;;35.75;32.50;;;;;21.49;40.55;99286.97;5129594;27;8868;-74
2023/10/14 09:19:47;;;;;;;;;33.00;31.50;;;;;21.77;39.90;99289.41;5095773;27;8943;-74
2023/10/14 09:22:23;;;;;;;;;29.80;29.40;;;;;21.95;39.50;99289.03;5130224;27;8849;-77
2023/10/14 09:24:58;;;;;;;;;33.75;31.25;;;;;22.09;39.18;99290.69;5112394;27;8841;-75
2023/10/14 09:27:30;;;;;;;;;32.00;29.25;;;;;22.02;38.57;99283.13;5129948;27;8837;-78
2023/10/14 09:30:03;;;;;;;;;39.50;32.50;;;;;21.67;39.17;99279.47;5111173;27;8849;-77
2023/10/14 09:32:35;;;;;;;;;38.25;33.00;;;;;21.58;39.61;99280.97;5094688;27;8849;-77
2023/10/14 09:35:05;;;;;;;;;33.50;30.50;;;;;20.92;39.86;99280.19;5129825;27;8854;-74
2023/10/14 09:37:33;;;;;;;;;11.00;10.25;;;;;21.43;39.95;99274.88;5129824;27;8868;-76
2023/10/14 09:40:12;;;;;;;;;30.80;28.60;;;;;21.41;38.93;99274.13;5076423;27;8825;-75
2023/10/14 09:42:44;;;;;;;;;27.80;26.00;;;;;21.00;38.50;99273.38;5129609;27;8849;-80
2023/10/14 09:45:14;;;;;;;;;29.80;27.40;;;;;20.86;39.23;99262.75;5129677;27;9660;-73
2023/10/14 09:47:45;;;;;;;;;22.20;20.80;;;;;21.36;38.79;99261.06;5129567;27;8838;-76
2023/10/14 09:50:16;;;;;;;;;21.80;21.80;;;;;21.21;37.57;99259.47;5129359;27;8849;-73
2023/10/14 09:52:48;;;;;;;;;27.40;26.00;;;;;20.99;38.33;99260.09;5128993;27;9632;-79
2023/10/14 09:55:21;;;;;;;;;30.80;29.60;;;;;20.97;38.58;99254.00;5129103;27;8868;-74
2023/10/14 09:57:51;;;;;;;;;26.00;25.60;;;;;20.97;38.80;99252.19;5129845;27;8834;-76
2023/10/14 10:00:21;;;;;;;;;28.60;27.80;;;;;21.40;38.35;99254.53;5129216;27;8830;-73
2023/10/14 10:02:51;;;;;;;;;30.25;29.50;;;;;21.22;38.14;99247.84;5129196;27;8838;-75
2023/10/14 10:05:28;;;;;;;;;31.40;27.00;;;;;21.13;38.49;99241.31;5129489;27;8885;-75
2023/10/14 10:08:09;;;;;;;;;25.20;23.40;;;;;21.16;38.26;99245.56;5129657;27;8880;-75
2023/10/14 10:10:41;;;;;;;;;22.40;22.40;;;;;21.08;37.83;99243.44;5129182;27;8849;-75
2023/10/14 10:13:12;;;;;;;;;23.80;22.00;;;;;21.23;37.55;99238.84;5130586;27;8845;-79
2023/10/14 10:15:41;;;;;;;;;22.60;19.80;;;;;21.36;37.57;99230.81;5094122;27;8899;-77
2023/10/14 10:18:12;;;;;;;;;22.80;22.80;;;;;21.49;36.83;99223.63;5128748;27;8853;-78
2023/10/14 10:20:51;;;;;;;;;23.80;23.20;;;;;21.24;37.52;99222.69;5129193;27;8842;-74
2023/10/14 10:23:19;;;;;;;;;22.60;21.80;;;;;21.33;37.54;99207.81;5127562;27;9583;-75
2023/10/14 10:25:51;;;;;;;;;27.20;26.20;;;;;21.87;36.80;99206.63;5128944;27;8960;-75
2023/10/14 10:28:46;;;;;;;;;27.00;24.80;;;;;22.30;36.03;99200.78;5129171;27;8853;-78
2023/10/14 10:31:21;;;;;;;;;20.20;19.60;;;;;22.41;35.92;99205.31;5045453;28;8934;-77
2023/10/14 10:33:58;;;;;;;;;30.80;27.20;;;;;22.75;34.86;99189.34;5045344;28;8876;-75
2023/10/14 10:36:29;;;;;;;;;21.20;21.00;;;;;23.04;34.36;99187.09;5045433;28;8857;-76
2023/10/14 10:39:15;;;;;;;;;24.00;23.00;;;;;23.37;33.35;99186.25;4981036;28;8857;-77
2023/10/14 10:41:51;;;;;;;;;20.20;19.00;;;;;23.61;33.48;99184.44;5045596;28;8866;-76
2023/10/14 10:44:20;;;;;;;;;20.80;20.80;;;;;23.65;32.16;99180.50;5045877;28;8858;-76
2023/10/14 10:46:51;;;;;;;;;17.60;16.40;;;;;23.86;31.58;99175.22;5045598;28;8858;-75
2023/10/14 10:49:56;;;;;;;;;20.20;17.80;;;;;24.12;31.27;99167.69;5045534;28;8850;-76
2023/10/14 10:52:27;;;;;;;;;17.80;17.40;;;;;24.20;30.62;99165.22;5029298;28;8862;-79
2023/10/14 10:54:59;;;;;;;;;18.20;18.20;;;;;24.28;30.86;99157.38;5045672;28;8878;-76
2023/10/14 10:57:29;;;;;;;;;21.40;21.20;;;;;24.28;30.91;99154.69;5045449;28;8842;-76
2023/10/14 10:59:58;;;;;;;;;26.00;26.00;;;;;24.47;30.84;99148.63;5057366;28;8913;-76
2023/10/14 11:02:29;;;;;;;;;19.40;18.80;;;;;24.61;30.64;99152.78;5065495;28;8828;-79
2023/10/14 11:04:58;;;;;;;;;19.40;19.20;;;;;24.81;30.37;99136.78;5065449;28;8975;-76
2023/10/14 11:07:27;;;;;;;;;25.40;24.60;;;;;24.96;29.75;99139.97;5090887;27;8819;-76
2023/10/14 11:09:56;;;;;;;;;17.60;17.00;;;;;25.11;28.85;99136.81;5149886;27;8870;-75
2023/10/14 11:12:25;;;;;;;;;20.40;19.20;;;;;25.20;27.84;99132.44;5135439;27;8936;-76
2023/10/14 11:14:58;;;;;;;;;20.20;19.00;;;;;25.26;27.57;99126.50;5095419;27;8839;-77
2023/10/14 11:17:27;;;;;;;;;13.00;13.00;;;;;25.39;27.70;99123.59;5152651;27;9581;-76
2023/10/14 11:19:56;;;;;;;;;21.40;19.80;;;;;25.23;28.18;99126.78;5153547;27;9704;-76
2023/10/14 11:22:26;;;;;;;;;19.00;18.80;;;;;25.40;28.46;99124.47;5153247;27;8844;-78
2023/10/14 11:24:55;;;;;;;;;19.40;19.40;;;;;25.52;28.75;99121.50;5129396;27;9555;-75
2023/10/14 11:27:25;;;;;;;;;21.60;20.20;;;;;25.65;28.94;99113.16;5120391;27;8828;-77
2023/10/14 11:29:57;;;;;;;;;21.00;20.00;;;;;25.75;28.21;99115.03;5109033;28;8899;-76
2023/10/14 11:32:27;;;;;;;;;22.00;20.20;;;;;25.98;27.81;99115.63;5109300;28;8855;-79
2023/10/14 11:34:58;;;;;;;;;21.60;19.00;;;;;26.17;27.06;99101.28;5109084;28;8851;-76
2023/10/14 11:37:29;;;;;;;;;20.80;20.80;;;;;26.23;27.54;99103.41;5109179;28;8844;-75
2023/10/14 11:39:58;;;;;;;;;18.60;16.60;;;;;26.29;27.05;99097.47;5109487;28;9734;-76
2023/10/14 11:42:27;;;;;;;;;21.40;19.80;;;;;26.50;26.40;99096.47;5109375;28;8851;-76
2023/10/14 11:44:58;;;;;;;;;11.80;11.80;;;;;26.53;25.74;99098.84;5109378;28;8843;-75
2023/10/14 11:47:29;;;;;;;;;21.20;20.60;;;;;26.52;25.27;99089.06;5109475;28;8862;-76
2023/10/14 11:49:58;;;;;;;;;17.40;16.60;;;;;26.40;25.25;99085.63;5038565;28;8849;-76
2023/10/14 11:52:27;;;;;;;;;20.80;20.20;;;;;26.26;25.09;99086.97;5088124;28;8850;-75